Time,TemperatureF,DewpointF,PressureIn,WindDirection,WindDirectionDegrees,WindSpeedMPH,WindSpeedGustMPH,Humidity,HourlyPrecipIn,Conditions,Clouds,dailyrainin,SoftwareType,DateUTC
2017-05-24 00:04:00,49.2,49.2,29.70,WNW,295,0.0,0.0,100,0.00,, +RA,1.00,VWS V15.00,2017-05-24 05:04:00,
2017-05-24 00:09:00,49.3,49.3,29.70,WNW,295,0.0,0.0,100,0.00,, +RA,1.00,VWS V15.00,2017-05-24 05:09:00,
2017-05-24 00:14:00,49.6,49.6,29.69,WNW,295,0.0,0.0,100,0.00,, +RA,1.00,VWS V15.00,2017-05-24 05:14:00,
2017-05-24 00:19:00,49.9,49.9,29.69,WNW,295,0.0,0.0,100,0.00,, +RA,1.00,VWS V15.00,2017-05-24 05:19:00,
2017-05-24 00:24:00,50.2,50.2,29.69,WNW,295,0.0,0.0,100,0.00,, +RA,1.00,VWS V15.00,2017-05-24 05:24:00,
2017-05-24 00:29:00,50.6,50.6,29.69,WNW,295,0.0,0.0,100,0.00,, +RA,1.00,VWS V15.00,2017-05-24 05:29:00,
2017-05-24 00:34:00,50.9,50.9,29.68,WNW,295,0.0,0.0,100,0.00,, +RA,1.00,VWS V15.00,2017-05-24 05:34:00,
2017-05-24 00:39:00,50.9,50.9,29.69,WNW,295,0.0,0.0,100,0.00,, +RA,1.00,VWS V15.00,2017-05-24 05:39:00,
2017-05-24 00:44:00,51.2,51.2,29.68,WNW,295,0.0,0.0,100,0.00,, +RA,1.00,VWS V15.00,2017-05-24 05:44:00,
2017-05-24 00:49:00,51.4,51.4,29.68,WNW,295,0.0,0.0,100,0.00,, +RA,1.00,VWS V15.00,2017-05-24 05:49:00,
2017-05-24 00:54:00,51.4,51.4,29.68,WNW,295,0.0,0.0,100,0.00,, +RA,1.00,VWS V15.00,2017-05-24 05:54:00,
2017-05-24 00:59:00,51.2,51.2,29.68,WNW,295,0.0,0.0,100,0.00,, +RA,1.00,VWS V15.00,2017-05-24 05:59:00,
2017-05-24 01:04:00,51.1,51.1,29.68,WNW,295,0.0,0.0,100,0.00,, +RA,0.00,VWS V15.00,2017-05-24 06:04:00,
2017-05-24 01:09:00,50.5,50.5,29.68,WNW,295,0.0,0.0,100,0.00,, +RA,0.00,VWS V15.00,2017-05-24 06:09:00,
2017-05-24 01:14:00,50.0,50.0,29.68,WNW,295,0.0,0.0,100,0.00,, +RA,0.00,VWS V15.00,2017-05-24 06:14:00,
2017-05-24 01:19:00,49.9,49.9,29.67,WNW,295,0.0,0.0,100,0.00,, +RA,0.00,VWS V15.00,2017-05-24 06:19:00,
2017-05-24 01:24:00,49.6,49.6,29.67,WNW,295,0.0,0.0,100,0.00,, +RA,0.00,VWS V15.00,2017-05-24 06:24:00,
2017-05-24 01:29:00,49.5,49.5,29.67,WNW,295,0.0,0.0,100,0.00,, +RA,0.00,VWS V15.00,2017-05-24 06:29:00,
2017-05-24 01:34:00,49.3,49.3,29.67,WNW,295,0.0,0.0,100,0.00,, +RA,0.00,VWS V15.00,2017-05-24 06:34:00,
2017-05-24 01:39:00,49.2,49.2,29.67,WNW,295,0.0,0.0,100,0.00,, +RA,0.00,VWS V15.00,2017-05-24 06:39:00,
2017-05-24 01:44:00,49.0,49.0,29.67,WNW,295,0.0,0.0,100,0.00,, +RA,0.00,VWS V15.00,2017-05-24 06:44:00,
2017-05-24 01:49:00,48.9,48.9,29.67,WNW,295,0.0,0.0,100,0.00,, +RA,0.00,VWS V15.00,2017-05-24 06:49:00,
2017-05-24 01:54:00,48.7,48.7,29.67,WNW,295,0.0,0.0,100,0.00,, +RA,0.00,VWS V15.00,2017-05-24 06:54:00,
2017-05-24 01:59:00,48.7,48.7,29.67,WNW,295,0.0,0.0,100,0.00,, +RA,0.00,VWS V15.00,2017-05-24 06:59:00,
2017-05-24 02:04:00,48.7,48.7,29.66,WNW,295,0.0,0.0,100,0.00,, +RA,0.00,VWS V15.00,2017-05-24 07:04:00,
2017-05-24 02:09:00,49.0,49.0,29.66,WNW,295,0.0,1.0,100,0.00,, +RA,0.00,VWS V15.00,2017-05-24 07:09:00,
2017-05-24 02:14:00,49.3,49.3,29.66,WNW,295,0.0,1.0,100,0.00,, +RA,0.00,VWS V15.00,2017-05-24 07:14:00,
2017-05-24 02:19:00,49.5,49.5,29.66,WNW,295,0.0,1.0,100,0.00,, +RA,0.00,VWS V15.00,2017-05-24 07:19:00,
2017-05-24 02:24:00,49.6,49.6,29.66,WNW,295,0.0,1.0,100,0.00,, +RA,0.00,VWS V15.00,2017-05-24 07:24:00,
2017-05-24 02:29:00,49.8,49.8,29.66,WNW,295,0.0,1.0,100,0.00,, +RA,0.00,VWS V15.00,2017-05-24 07:29:00,
2017-05-24 02:34:00,50.0,50.0,29.66,WNW,295,0.0,2.0,100,0.01,, +RA,0.01,VWS V15.00,2017-05-24 07:34:00,
2017-05-24 02:39:00,50.2,50.2,29.66,WNW,295,0.0,3.0,100,0.01,, +RA,0.01,VWS V15.00,2017-05-24 07:39:00,
2017-05-24 02:44:00,50.2,50.2,29.65,WNW,295,0.0,3.0,100,0.01,, +RA,0.01,VWS V15.00,2017-05-24 07:44:00,
2017-05-24 02:49:00,50.3,50.3,29.65,WNW,295,0.0,4.0,100,0.01,, +RA,0.01,VWS V15.00,2017-05-24 07:49:00,
2017-05-24 02:54:00,50.3,50.3,29.65,WNW,295,0.0,4.0,100,0.01,, +RA,0.01,VWS V15.00,2017-05-24 07:54:00,
2017-05-24 02:59:00,50.5,50.5,29.65,WNW,295,0.0,4.0,100,0.01,, +RA,0.01,VWS V15.00,2017-05-24 07:59:00,
2017-05-24 03:04:00,50.5,50.5,29.66,WNW,295,0.0,0.0,100,0.01,, +RA,0.01,VWS V15.00,2017-05-24 08:04:00,
2017-05-24 03:09:00,50.6,50.6,29.65,WNW,295,0.0,0.0,100,0.01,, +RA,0.01,VWS V15.00,2017-05-24 08:09:00,
2017-05-24 03:14:00,50.6,50.6,29.65,WNW,295,0.0,0.0,100,0.01,, +RA,0.01,VWS V15.00,2017-05-24 08:14:00,
2017-05-24 03:19:00,50.8,50.8,29.65,WNW,295,0.0,1.0,100,0.01,, +RA,0.01,VWS V15.00,2017-05-24 08:19:00,
2017-05-24 03:24:00,50.9,50.9,29.65,WNW,295,1.0,1.0,100,0.01,, +RA,0.01,VWS V15.00,2017-05-24 08:24:00,
2017-05-24 03:29:00,51.1,51.1,29.65,WNW,295,0.0,2.0,100,0.01,, +RA,0.01,VWS V15.00,2017-05-24 08:29:00,
2017-05-24 03:30:00,51.1,51.1,29.65,WNW,295,0.0,2.0,100,0.01,, +RA,0.01,VWS V15.00,2017-05-24 08:30:00,
2017-05-24 03:35:00,51.2,51.2,29.65,WNW,295,0.0,1.0,100,0.01,, +RA,0.01,VWS V15.00,2017-05-24 08:35:00,
2017-05-24 03:40:00,51.2,51.2,29.65,WNW,295,0.0,1.0,100,0.01,, +RA,0.01,VWS V15.00,2017-05-24 08:40:00,
2017-05-24 03:45:00,51.4,51.4,29.65,WNW,295,0.0,1.0,100,0.01,, +RA,0.01,VWS V15.00,2017-05-24 08:45:00,
2017-05-24 03:50:00,51.4,51.4,29.65,WNW,295,0.0,1.0,100,0.01,, +RA,0.01,VWS V15.00,2017-05-24 08:50:00,
2017-05-24 03:55:00,51.5,51.5,29.65,WNW,295,1.0,3.0,100,0.01,, +RA,0.01,VWS V15.00,2017-05-24 08:55:00,
2017-05-24 04:00:00,51.7,51.7,29.65,WNW,295,0.0,3.0,100,0.01,, +RA,0.01,VWS V15.00,2017-05-24 09:00:00,
2017-05-24 04:05:00,51.8,51.8,29.65,WNW,295,0.0,1.0,100,0.00,, +RA,0.01,VWS V15.00,2017-05-24 09:05:00,
2017-05-24 04:10:00,52.0,52.0,29.65,WNW,295,0.0,1.0,100,0.00,, +RA,0.01,VWS V15.00,2017-05-24 09:10:00,
2017-05-24 04:15:00,52.0,52.0,29.65,WNW,295,0.0,3.0,100,0.00,, +RA,0.01,VWS V15.00,2017-05-24 09:15:00,
2017-05-24 04:20:00,52.1,52.1,29.65,WNW,295,0.0,3.0,100,0.00,, +RA,0.01,VWS V15.00,2017-05-24 09:20:00,
2017-05-24 04:25:00,52.2,52.2,29.64,WNW,295,0.0,3.0,100,0.00,, +RA,0.01,VWS V15.00,2017-05-24 09:25:00,
2017-05-24 04:30:00,52.2,52.2,29.65,WNW,295,0.0,3.0,100,0.00,, +RA,0.01,VWS V15.00,2017-05-24 09:30:00,
2017-05-24 04:35:00,52.2,52.2,29.64,WNW,295,0.0,3.0,100,0.00,, +RA,0.01,VWS V15.00,2017-05-24 09:35:00,
2017-05-24 04:40:00,52.1,52.1,29.64,WNW,295,1.0,4.0,100,0.00,, +RA,0.01,VWS V15.00,2017-05-24 09:40:00,
2017-05-24 04:45:00,52.1,52.1,29.64,WNW,295,0.0,4.0,100,0.00,, +RA,0.01,VWS V15.00,2017-05-24 09:45:00,
2017-05-24 04:50:00,52.1,52.1,29.64,WNW,295,0.0,4.0,100,0.00,, +RA,0.01,VWS V15.00,2017-05-24 09:50:00,
2017-05-24 04:55:00,52.0,52.0,29.65,WNW,295,0.0,5.0,100,0.00,, +RA,0.01,VWS V15.00,2017-05-24 09:55:00,
2017-05-24 05:00:00,52.0,52.0,29.64,WNW,295,2.0,2.0,100,0.00,, +RA,0.01,VWS V15.00,2017-05-24 10:00:00,
2017-05-24 05:05:00,51.8,51.8,29.64,WNW,295,1.0,5.0,100,0.00,, +RA,0.01,VWS V15.00,2017-05-24 10:05:00,
2017-05-24 05:10:00,51.7,51.7,29.65,WNW,295,0.0,5.0,100,0.00,, +RA,0.01,VWS V15.00,2017-05-24 10:10:00,
2017-05-24 05:15:00,51.7,51.7,29.64,WNW,295,0.0,5.0,100,0.00,, +RA,0.01,VWS V15.00,2017-05-24 10:15:00,
2017-05-24 05:20:00,51.7,51.7,29.65,WNW,295,0.0,5.0,100,0.00,, +RA,0.01,VWS V15.00,2017-05-24 10:20:00,
2017-05-24 05:25:00,51.7,51.7,29.65,WNW,295,1.0,5.0,100,0.00,, +RA,0.01,VWS V15.00,2017-05-24 10:25:00,
2017-05-24 05:28:00,51.7,51.7,29.64,WNW,295,4.0,5.0,100,0.00,, +RA,0.01,VWS V15.00,2017-05-24 10:28:00,
2017-05-24 05:33:00,51.5,51.5,29.64,WNW,295,0.0,5.0,100,0.00,, +RA,0.01,VWS V15.00,2017-05-24 10:33:00,
2017-05-24 05:38:00,51.5,51.5,29.65,WNW,295,0.0,5.0,100,0.00,, +RA,0.01,VWS V15.00,2017-05-24 10:38:00,
2017-05-24 05:43:00,51.5,51.5,29.65,WNW,295,0.0,5.0,100,0.00,, +RA,0.01,VWS V15.00,2017-05-24 10:43:00,
2017-05-24 05:48:00,51.5,51.5,29.64,WNW,295,2.0,5.0,100,0.00,, +RA,0.01,VWS V15.00,2017-05-24 10:48:00,
2017-05-24 05:53:00,51.5,51.5,29.64,WNW,295,2.0,5.0,100,0.00,, +RA,0.01,VWS V15.00,2017-05-24 10:53:00,
2017-05-24 05:58:00,51.4,51.4,29.64,WNW,295,3.0,5.0,100,0.00,, +RA,0.01,VWS V15.00,2017-05-24 10:58:00,
2017-05-24 06:03:00,51.4,51.4,29.64,WNW,295,0.0,5.0,100,0.00,, +RA,0.01,VWS V15.00,2017-05-24 11:03:00,
2017-05-24 06:08:00,51.4,51.4,29.64,WNW,295,1.0,5.0,100,0.00,, +RA,0.01,VWS V15.00,2017-05-24 11:08:00,
2017-05-24 06:13:00,51.4,51.4,29.64,WNW,295,3.0,5.0,100,0.00,, +RA,0.01,VWS V15.00,2017-05-24 11:13:00,
2017-05-24 06:18:00,51.4,51.4,29.64,WNW,296,0.0,6.0,100,0.00,, +RA,0.01,VWS V15.00,2017-05-24 11:18:00,
2017-05-24 06:23:00,51.4,51.4,29.64,WNW,296,3.0,6.0,100,0.00,, +RA,0.01,VWS V15.00,2017-05-24 11:23:00,
2017-05-24 06:28:00,51.4,51.4,29.65,WNW,296,1.0,6.0,100,0.00,, +RA,0.01,VWS V15.00,2017-05-24 11:28:00,
2017-05-24 06:33:00,51.4,51.4,29.64,WNW,296,2.0,3.0,100,0.00,, +RA,0.01,VWS V15.00,2017-05-24 11:33:00,
2017-05-24 06:38:00,51.4,51.4,29.64,WNW,296,1.0,4.0,100,0.00,, +RA,0.01,VWS V15.00,2017-05-24 11:38:00,
2017-05-24 06:43:00,51.4,51.4,29.64,WNW,297,0.0,4.0,100,0.00,, +RA,0.01,VWS V15.00,2017-05-24 11:43:00,
2017-05-24 06:48:00,51.3,51.3,29.64,WNW,297,0.0,4.0,100,0.00,, +RA,0.01,VWS V15.00,2017-05-24 11:48:00,
2017-05-24 06:53:00,51.2,51.2,29.65,WNW,298,1.0,5.0,100,0.00,, +RA,0.01,VWS V15.00,2017-05-24 11:53:00,
2017-05-24 06:58:00,51.2,51.2,29.64,WNW,300,0.0,5.0,100,0.00,, +RA,0.01,VWS V15.00,2017-05-24 11:58:00,
2017-05-24 07:03:00,51.2,51.2,29.65,WNW,300,0.0,3.0,100,0.00,, +RA,0.01,VWS V15.00,2017-05-24 12:03:00,
2017-05-24 07:08:00,51.2,51.2,29.65,WNW,301,2.0,4.0,100,0.00,, +RA,0.01,VWS V15.00,2017-05-24 12:08:00,
2017-05-24 07:13:00,51.2,51.2,29.65,NW,308,1.0,4.0,100,0.01,, +RA,0.02,VWS V15.00,2017-05-24 12:13:00,
2017-05-24 07:18:00,51.2,51.2,29.65,NW,308,0.0,4.0,100,0.04,, +RA,0.05,VWS V15.00,2017-05-24 12:18:00,
2017-05-24 07:23:00,51.2,51.2,29.65,NW,308,0.0,4.0,100,0.07,, +RA,0.08,VWS V15.00,2017-05-24 12:23:00,
2017-05-24 07:28:00,51.2,51.2,29.64,NW,308,0.0,4.0,100,0.09,, +RA,0.10,VWS V15.00,2017-05-24 12:28:00,
2017-05-24 07:33:00,51.2,51.2,29.65,NW,310,1.0,3.0,100,0.10,, +RA,0.11,VWS V15.00,2017-05-24 12:33:00,
2017-05-24 07:38:00,51.2,51.2,29.64,NNW,329,1.0,5.0,100,0.11,, +RA,0.12,VWS V15.00,2017-05-24 12:38:00,
2017-05-24 07:43:00,51.1,51.1,29.65,NNW,344,5.0,5.0,100,0.11,, +RA,0.12,VWS V15.00,2017-05-24 12:43:00,
2017-05-24 07:48:00,51.1,51.1,29.65,NNW,343,2.0,5.0,100,0.12,, +RA,0.13,VWS V15.00,2017-05-24 12:48:00,
2017-05-24 07:53:00,50.9,50.9,29.65,North,353,0.0,5.0,100,0.12,, +RA,0.13,VWS V15.00,2017-05-24 12:53:00,
2017-05-24 07:54:00,50.9,50.9,29.65,North,353,0.0,5.0,100,0.12,, +RA,0.13,VWS V15.00,2017-05-24 12:54:00,
2017-05-24 07:59:00,50.9,50.9,29.65,North,353,0.0,5.0,100,0.13,, +RA,0.14,VWS V15.00,2017-05-24 12:59:00,
2017-05-24 08:04:00,50.9,50.9,29.65,North,353,0.0,4.0,100,0.13,, +RA,0.14,VWS V15.00,2017-05-24 13:04:00,
2017-05-24 08:09:00,50.9,50.9,29.65,North,0,0.0,7.0,100,0.13,, +RA,0.14,VWS V15.00,2017-05-24 13:09:00,
2017-05-24 08:14:00,50.8,50.8,29.65,North,0,3.0,7.0,100,0.13,, +RA,0.14,VWS V15.00,2017-05-24 13:14:00,
2017-05-24 08:19:00,50.8,50.8,29.64,North,0,0.0,7.0,100,0.13,, +RA,0.14,VWS V15.00,2017-05-24 13:19:00,
2017-05-24 08:24:00,50.8,50.8,29.65,North,0,0.0,7.0,100,0.13,, +RA,0.14,VWS V15.00,2017-05-24 13:24:00,
2017-05-24 08:29:00,50.8,50.8,29.65,North,0,0.0,7.0,100,0.13,, +RA,0.14,VWS V15.00,2017-05-24 13:29:00,
2017-05-24 08:34:00,50.8,50.8,29.65,North,0,0.0,5.0,100,0.04,, +RA,0.14,VWS V15.00,2017-05-24 13:34:00,
2017-05-24 08:39:00,50.9,50.9,29.65,North,0,2.0,5.0,100,0.04,, +RA,0.14,VWS V15.00,2017-05-24 13:39:00,
2017-05-24 08:44:00,50.8,50.8,29.65,North,0,4.0,5.0,100,0.04,, +RA,0.14,VWS V15.00,2017-05-24 13:44:00,
2017-05-24 08:49:00,50.8,50.8,29.65,North,0,0.0,5.0,100,0.04,, +RA,0.14,VWS V15.00,2017-05-24 13:49:00,
2017-05-24 08:54:00,50.9,50.9,29.65,North,0,1.0,5.0,100,0.04,, +RA,0.14,VWS V15.00,2017-05-24 13:54:00,
2017-05-24 08:59:00,51.1,51.1,29.65,North,0,0.0,5.0,100,0.04,, +RA,0.14,VWS V15.00,2017-05-24 13:59:00,
2017-05-24 09:04:00,51.1,51.1,29.64,North,0,0.0,5.0,100,0.00,, +RA,0.14,VWS V15.00,2017-05-24 14:04:00,
2017-05-24 09:09:00,51.1,51.1,29.64,North,0,1.0,5.0,100,0.00,, +RA,0.14,VWS V15.00,2017-05-24 14:09:00,
2017-05-24 09:14:00,51.1,51.1,29.65,North,0,0.0,5.0,100,0.00,, +RA,0.14,VWS V15.00,2017-05-24 14:14:00,
2017-05-24 09:19:00,51.1,51.1,29.65,North,0,0.0,5.0,100,0.00,, +RA,0.14,VWS V15.00,2017-05-24 14:19:00,
2017-05-24 09:24:00,51.1,51.1,29.65,North,0,2.0,5.0,100,0.00,, +RA,0.14,VWS V15.00,2017-05-24 14:24:00,
2017-05-24 09:34:00,51.2,51.2,29.64,North,0,0.0,4.0,100,0.00,, +RA,0.14,VWS V15.00,2017-05-24 14:34:00,
2017-05-24 09:39:00,51.2,51.2,29.64,North,0,3.0,5.0,100,0.00,, +RA,0.14,VWS V15.00,2017-05-24 14:39:00,
2017-05-24 09:44:00,51.2,51.2,29.64,North,0,1.0,6.0,100,0.00,, +RA,0.14,VWS V15.00,2017-05-24 14:44:00,
2017-05-24 09:49:00,51.5,51.5,29.64,North,0,2.0,6.0,100,0.00,, +RA,0.14,VWS V15.00,2017-05-24 14:49:00,
2017-05-24 09:54:00,51.5,51.5,29.64,North,0,0.0,6.0,100,0.00,, +RA,0.14,VWS V15.00,2017-05-24 14:54:00,
2017-05-24 09:59:00,51.5,51.5,29.64,North,0,0.0,6.0,100,0.00,, +RA,0.14,VWS V15.00,2017-05-24 14:59:00,
2017-05-24 10:04:00,51.5,51.5,29.64,North,0,3.0,5.0,100,0.00,, +RA,0.14,VWS V15.00,2017-05-24 15:04:00,
2017-05-24 10:09:00,51.7,51.7,29.64,North,0,0.0,5.0,100,0.00,, +RA,0.14,VWS V15.00,2017-05-24 15:09:00,
2017-05-24 10:14:00,51.9,51.9,29.64,North,0,0.0,5.0,100,0.00,, +RA,0.14,VWS V15.00,2017-05-24 15:14:00,
2017-05-24 10:19:00,52.0,52.0,29.64,North,0,0.0,5.0,100,0.00,, +RA,0.14,VWS V15.00,2017-05-24 15:19:00,
2017-05-24 10:24:00,52.2,52.2,29.64,North,0,0.0,5.0,100,0.00,, +RA,0.14,VWS V15.00,2017-05-24 15:24:00,
2017-05-24 10:29:00,52.2,52.2,29.64,North,0,2.0,5.0,100,0.00,, +RA,0.14,VWS V15.00,2017-05-24 15:29:00,
2017-05-24 10:34:00,52.2,52.2,29.64,North,0,0.0,5.0,100,0.00,, +RA,0.14,VWS V15.00,2017-05-24 15:34:00,
2017-05-24 10:39:00,52.2,52.2,29.64,North,0,0.0,5.0,100,0.00,, +RA,0.14,VWS V15.00,2017-05-24 15:39:00,
2017-05-24 10:44:00,52.2,52.2,29.64,North,0,3.0,6.0,100,0.00,, +RA,0.14,VWS V15.00,2017-05-24 15:44:00,
2017-05-24 10:49:00,52.2,52.2,29.63,North,0,0.0,6.0,100,0.00,, +RA,0.14,VWS V15.00,2017-05-24 15:49:00,
2017-05-24 10:54:00,52.5,52.5,29.64,North,0,1.0,6.0,100,0.00,, +RA,0.14,VWS V15.00,2017-05-24 15:54:00,
2017-05-24 11:04:00,52.5,52.5,29.63,North,0,3.0,5.0,100,0.00,, +RA,0.14,VWS V15.00,2017-05-24 16:04:00,
2017-05-24 11:09:00,52.7,52.7,29.63,North,0,1.0,5.0,100,0.00,, +RA,0.14,VWS V15.00,2017-05-24 16:09:00,
2017-05-24 11:14:00,52.7,52.7,29.63,NNE,13,0.0,7.0,100,0.00,, +RA,0.14,VWS V15.00,2017-05-24 16:14:00,
2017-05-24 11:19:00,52.8,52.8,29.63,NNE,13,0.0,7.0,100,0.00,, +RA,0.14,VWS V15.00,2017-05-24 16:19:00,
2017-05-24 11:24:00,52.8,52.8,29.63,NNE,13,2.0,7.0,100,0.00,, +RA,0.14,VWS V15.00,2017-05-24 16:24:00,
2017-05-24 11:29:00,52.8,52.8,29.63,NNE,13,2.0,7.0,100,0.00,, +RA,0.14,VWS V15.00,2017-05-24 16:29:00,
2017-05-24 11:34:00,53.0,53.0,29.63,NNE,12,4.0,5.0,100,0.00,, +RA,0.14,VWS V15.00,2017-05-24 16:34:00,
2017-05-24 11:39:00,53.0,53.0,29.63,NNE,12,1.0,5.0,100,0.00,, +RA,0.14,VWS V15.00,2017-05-24 16:39:00,
2017-05-24 11:44:00,53.1,53.1,29.63,NNE,12,0.0,5.0,100,0.00,, +RA,0.14,VWS V15.00,2017-05-24 16:44:00,
2017-05-24 11:49:00,53.3,53.3,29.63,North,11,1.0,6.0,100,0.00,, +RA,0.14,VWS V15.00,2017-05-24 16:49:00,
2017-05-24 11:54:00,53.3,53.3,29.63,North,11,1.0,6.0,100,0.01,, +RA,0.15,VWS V15.00,2017-05-24 16:54:00,
2017-05-24 11:59:00,53.4,53.4,29.63,North,11,3.0,6.0,100,0.01,, +RA,0.15,VWS V15.00,2017-05-24 16:59:00,
2017-05-24 12:04:00,53.6,53.6,29.63,North,4,4.0,4.0,100,0.01,, +RA,0.15,VWS V15.00,2017-05-24 17:04:00,
2017-05-24 12:09:00,54.0,54.0,29.62,North,4,2.0,5.0,100,0.01,, +RA,0.15,VWS V15.00,2017-05-24 17:09:00,
2017-05-24 12:14:00,54.2,54.2,29.62,North,359,0.0,5.0,100,0.01,, +RA,0.15,VWS V15.00,2017-05-24 17:14:00,
2017-05-24 12:19:00,54.3,54.3,29.62,NNE,21,1.0,7.0,100,0.01,, +RA,0.15,VWS V15.00,2017-05-24 17:19:00,
2017-05-24 12:24:00,54.7,54.7,29.62,North,0,5.0,7.0,100,0.01,, +RA,0.15,VWS V15.00,2017-05-24 17:24:00,
2017-05-24 12:29:00,55.2,55.2,29.62,North,0,2.0,7.0,100,0.01,, +RA,0.15,VWS V15.00,2017-05-24 17:29:00,
2017-05-24 12:34:00,55.3,55.3,29.62,North,0,1.0,5.0,100,0.01,, +RA,0.15,VWS V15.00,2017-05-24 17:34:00,
2017-05-24 12:39:00,55.5,55.5,29.62,NNE,29,3.0,6.0,100,0.01,, +RA,0.15,VWS V15.00,2017-05-24 17:39:00,
2017-05-24 12:44:00,55.5,55.5,29.62,North,356,1.0,6.0,100,0.01,, +RA,0.15,VWS V15.00,2017-05-24 17:44:00,
2017-05-24 12:54:00,55.5,55.5,29.62,North,6,0.0,8.0,100,0.01,, +RA,0.15,VWS V15.00,2017-05-24 17:54:00,
2017-05-24 12:59:00,55.3,55.3,29.62,North,0,4.0,8.0,100,0.01,, +RA,0.15,VWS V15.00,2017-05-24 17:59:00,
2017-05-24 13:04:00,55.2,55.2,29.62,NW,317,0.0,7.0,100,0.00,, +RA,0.15,VWS V15.00,2017-05-24 18:04:00,
2017-05-24 13:09:00,55.3,55.3,29.62,NNE,21,0.0,7.0,100,0.00,, +RA,0.15,VWS V15.00,2017-05-24 18:09:00,
2017-05-24 13:14:00,55.3,55.3,29.63,NNE,20,1.0,7.0,100,0.00,, +RA,0.15,VWS V15.00,2017-05-24 18:14:00,
2017-05-24 13:19:00,55.6,55.6,29.63,WSW,251,6.0,8.0,100,0.00,, +RA,0.15,VWS V15.00,2017-05-24 18:19:00,
2017-05-24 13:24:00,55.6,55.6,29.63,North,0,2.0,8.0,100,0.00,, +RA,0.15,VWS V15.00,2017-05-24 18:24:00,
2017-05-24 13:29:00,55.6,55.6,29.63,North,6,4.0,8.0,100,0.00,, +RA,0.15,VWS V15.00,2017-05-24 18:29:00,
2017-05-24 13:34:00,55.5,55.5,29.63,North,3,1.0,7.0,100,0.00,, +RA,0.15,VWS V15.00,2017-05-24 18:34:00,
2017-05-24 13:39:00,55.6,55.6,29.62,NNE,21,0.0,7.0,100,0.00,, +RA,0.15,VWS V15.00,2017-05-24 18:39:00,
2017-05-24 13:44:00,55.8,55.8,29.63,NNE,19,3.0,7.0,100,0.00,, +RA,0.15,VWS V15.00,2017-05-24 18:44:00,
2017-05-24 13:49:00,55.8,55.8,29.62,North,4,6.0,7.0,100,0.00,, +RA,0.15,VWS V15.00,2017-05-24 18:49:00,
2017-05-24 13:54:00,55.7,55.7,29.62,NNE,12,0.0,7.0,100,0.00,, +RA,0.15,VWS V15.00,2017-05-24 18:54:00,
2017-05-24 13:59:00,55.7,55.7,29.62,NNE,16,2.0,7.0,100,0.00,, +RA,0.15,VWS V15.00,2017-05-24 18:59:00,
2017-05-24 14:04:00,55.8,55.8,29.62,North,1,1.0,6.0,100,0.00,, +RA,0.15,VWS V15.00,2017-05-24 19:04:00,
2017-05-24 14:09:00,56.1,56.1,29.62,North,0,1.0,6.0,100,0.00,, +RA,0.15,VWS V15.00,2017-05-24 19:09:00,
2017-05-24 14:14:00,56.2,56.2,29.62,NNE,15,6.0,6.0,100,0.00,, +RA,0.15,VWS V15.00,2017-05-24 19:14:00,
2017-05-24 14:19:00,56.5,56.5,29.62,North,359,3.0,6.0,100,0.00,, +RA,0.15,VWS V15.00,2017-05-24 19:19:00,
2017-05-24 14:24:00,56.5,56.5,29.62,North,7,2.0,6.0,100,0.00,, +RA,0.15,VWS V15.00,2017-05-24 19:24:00,
2017-05-24 14:29:00,56.7,56.7,29.62,NNW,344,4.0,7.0,100,0.00,, +RA,0.15,VWS V15.00,2017-05-24 19:29:00,
2017-05-24 14:34:00,56.5,56.5,29.62,NNE,27,5.0,7.0,100,0.00,, +RA,0.15,VWS V15.00,2017-05-24 19:34:00,
2017-05-24 14:39:00,56.3,56.3,29.62,NNE,19,4.0,8.0,100,0.00,, +RA,0.15,VWS V15.00,2017-05-24 19:39:00,
2017-05-24 14:44:00,56.4,56.4,29.62,NNW,339,2.0,8.0,100,0.00,, +RA,0.15,VWS V15.00,2017-05-24 19:44:00,
2017-05-24 14:49:00,56.3,56.3,29.62,North,3,2.0,8.0,100,0.00,, +RA,0.15,VWS V15.00,2017-05-24 19:49:00,
2017-05-24 14:54:00,56.4,56.4,29.62,NNW,337,0.0,8.0,100,0.00,, +RA,0.15,VWS V15.00,2017-05-24 19:54:00,
2017-05-24 14:59:00,56.3,56.3,29.62,NW,314,3.0,8.0,100,0.00,, +RA,0.15,VWS V15.00,2017-05-24 19:59:00,
2017-05-24 15:04:00,56.4,56.4,29.62,NNW,347,5.0,5.0,100,0.00,, +RA,0.15,VWS V15.00,2017-05-24 20:04:00,
2017-05-24 15:09:00,56.4,56.4,29.62,North,359,2.0,6.0,100,0.00,, +RA,0.15,VWS V15.00,2017-05-24 20:09:00,
2017-05-24 15:14:00,56.2,56.2,29.62,North,7,2.0,7.0,100,0.00,, +RA,0.15,VWS V15.00,2017-05-24 20:14:00,
2017-05-24 15:19:00,56.2,56.2,29.62,North,5,2.0,7.0,100,0.00,, +RA,0.15,VWS V15.00,2017-05-24 20:19:00,
2017-05-24 15:24:00,56.4,56.4,29.62,North,352,0.0,7.0,100,0.00,, +RA,0.15,VWS V15.00,2017-05-24 20:24:00,
2017-05-24 15:29:00,56.5,56.5,29.62,North,9,1.0,7.0,100,0.00,, +RA,0.15,VWS V15.00,2017-05-24 20:29:00,
2017-05-24 15:34:00,56.8,56.8,29.62,NNE,25,3.0,8.0,100,0.00,, +RA,0.15,VWS V15.00,2017-05-24 20:34:00,
2017-05-24 15:39:00,56.9,56.9,29.62,North,4,0.0,8.0,100,0.00,, +RA,0.15,VWS V15.00,2017-05-24 20:39:00,
2017-05-24 15:44:00,57.1,57.1,29.62,North,4,2.0,8.0,100,0.00,, +RA,0.15,VWS V15.00,2017-05-24 20:44:00,
2017-05-24 15:49:00,57.1,57.1,29.62,NNW,329,0.0,8.0,100,0.00,, +RA,0.15,VWS V15.00,2017-05-24 20:49:00,
2017-05-24 15:54:00,56.9,56.9,29.62,NNE,15,0.0,8.0,100,0.00,, +RA,0.15,VWS V15.00,2017-05-24 20:54:00,
2017-05-24 15:59:00,57.0,57.0,29.62,North,0,2.0,8.0,100,0.00,, +RA,0.15,VWS V15.00,2017-05-24 20:59:00,
2017-05-24 16:04:00,56.9,56.9,29.61,North,349,3.0,3.0,100,0.00,, +RA,0.15,VWS V15.00,2017-05-24 21:04:00,
2017-05-24 16:09:00,57.0,57.0,29.62,WNW,293,2.0,7.0,100,0.00,, +RA,0.15,VWS V15.00,2017-05-24 21:09:00,
2017-05-24 16:14:00,56.9,56.9,29.62,North,0,2.0,7.0,100,0.00,, +RA,0.15,VWS V15.00,2017-05-24 21:14:00,
2017-05-24 16:19:00,57.1,57.1,29.61,North,0,0.0,7.0,100,0.00,, +RA,0.15,VWS V15.00,2017-05-24 21:19:00,
2017-05-24 16:24:00,57.1,57.1,29.61,West,265,3.0,7.0,100,0.00,, +RA,0.15,VWS V15.00,2017-05-24 21:24:00,
2017-05-24 16:29:00,57.1,57.1,29.62,North,9,3.0,7.0,100,0.00,, +RA,0.15,VWS V15.00,2017-05-24 21:29:00,
2017-05-24 16:34:00,57.1,57.1,29.61,North,9,2.0,4.0,100,0.00,, +RA,0.15,VWS V15.00,2017-05-24 21:34:00,
2017-05-24 16:39:00,57.4,57.4,29.62,North,10,1.0,6.0,100,0.00,, +RA,0.15,VWS V15.00,2017-05-24 21:39:00,
2017-05-24 16:44:00,57.4,57.4,29.62,North,4,2.0,6.0,100,0.00,, +RA,0.15,VWS V15.00,2017-05-24 21:44:00,
2017-05-24 16:49:00,57.6,57.6,29.62,NNW,339,3.0,6.0,100,0.00,, +RA,0.15,VWS V15.00,2017-05-24 21:49:00,
2017-05-24 16:54:00,57.4,57.4,29.62,North,0,1.0,6.0,100,0.00,, +RA,0.15,VWS V15.00,2017-05-24 21:54:00,
2017-05-24 16:59:00,57.2,57.2,29.62,North,9,2.0,7.0,100,0.00,, +RA,0.15,VWS V15.00,2017-05-24 21:59:00,
2017-05-24 17:04:00,57.2,57.2,29.62,NNE,20,3.0,7.0,100,0.00,, +RA,0.15,VWS V15.00,2017-05-24 22:04:00,
2017-05-24 17:09:00,57.2,57.2,29.62,NNE,22,7.0,7.0,100,0.00,, +RA,0.15,VWS V15.00,2017-05-24 22:09:00,
2017-05-24 17:14:00,57.4,57.4,29.62,North,0,2.0,7.0,100,0.00,, +RA,0.15,VWS V15.00,2017-05-24 22:14:00,
2017-05-24 17:19:00,57.4,57.4,29.62,North,4,1.0,7.0,100,0.00,, +RA,0.15,VWS V15.00,2017-05-24 22:19:00,
2017-05-24 17:24:00,57.6,57.6,29.61,NNW,340,1.0,7.0,100,0.00,, +RA,0.15,VWS V15.00,2017-05-24 22:24:00,
2017-05-24 17:29:00,57.5,57.5,29.62,North,0,2.0,7.0,100,0.00,, +RA,0.15,VWS V15.00,2017-05-24 22:29:00,
2017-05-24 17:34:00,57.7,57.7,29.62,North,0,1.0,5.0,100,0.00,, +RA,0.15,VWS V15.00,2017-05-24 22:34:00,
2017-05-24 17:39:00,57.5,57.5,29.62,NNE,13,2.0,5.0,100,0.00,, +RA,0.15,VWS V15.00,2017-05-24 22:39:00,
2017-05-24 17:44:00,57.4,57.4,29.62,NNE,22,5.0,7.0,100,0.00,, +RA,0.15,VWS V15.00,2017-05-24 22:44:00,
2017-05-24 17:49:00,57.4,57.4,29.62,North,358,0.0,7.0,100,0.00,, +RA,0.15,VWS V15.00,2017-05-24 22:49:00,
2017-05-24 17:54:00,57.4,57.4,29.62,NNE,20,3.0,7.0,100,0.00,, +RA,0.15,VWS V15.00,2017-05-24 22:54:00,
2017-05-24 17:59:00,57.2,57.2,29.62,North,4,1.0,7.0,100,0.00,, +RA,0.15,VWS V15.00,2017-05-24 22:59:00,
2017-05-24 18:04:00,57.2,57.2,29.62,North,359,0.0,6.0,100,0.00,, +RA,0.15,VWS V15.00,2017-05-24 23:04:00,
2017-05-24 18:09:00,57.1,57.1,29.62,North,358,2.0,7.0,100,0.00,, +RA,0.15,VWS V15.00,2017-05-24 23:09:00,
2017-05-24 18:14:00,57.1,57.1,29.62,SE,138,3.0,7.0,100,0.00,, +RA,0.15,VWS V15.00,2017-05-24 23:14:00,
2017-05-24 18:19:00,56.9,56.9,29.62,NE,38,3.0,7.0,100,0.00,, +RA,0.15,VWS V15.00,2017-05-24 23:19:00,
2017-05-24 18:24:00,57.0,57.0,29.63,North,0,2.0,7.0,100,0.00,, +RA,0.15,VWS V15.00,2017-05-24 23:24:00,
2017-05-24 18:29:00,56.9,56.9,29.63,NNW,344,2.0,7.0,100,0.00,, +RA,0.15,VWS V15.00,2017-05-24 23:29:00,
2017-05-24 18:34:00,56.8,56.8,29.62,North,0,1.0,6.0,100,0.00,, +RA,0.15,VWS V15.00,2017-05-24 23:34:00,
2017-05-24 18:39:00,56.7,56.7,29.62,North,0,0.0,6.0,100,0.00,, +RA,0.15,VWS V15.00,2017-05-24 23:39:00,
2017-05-24 18:44:00,56.7,56.7,29.62,North,1,4.0,6.0,100,0.00,, +RA,0.15,VWS V15.00,2017-05-24 23:44:00,
2017-05-24 18:49:00,56.5,56.5,29.63,North,6,2.0,7.0,100,0.00,, +RA,0.15,VWS V15.00,2017-05-24 23:49:00,
2017-05-24 18:54:00,56.5,56.5,29.63,NNW,348,0.0,7.0,100,0.00,, +RA,0.15,VWS V15.00,2017-05-24 23:54:00,
2017-05-24 18:59:00,56.3,56.3,29.63,North,9,1.0,7.0,100,0.00,, +RA,0.15,VWS V15.00,2017-05-24 23:59:00,
2017-05-24 19:04:00,56.3,56.3,29.63,NNW,330,0.0,7.0,100,0.00,, +RA,0.15,VWS V15.00,2017-05-25 00:04:00,
2017-05-24 19:09:00,56.4,56.4,29.63,North,0,1.0,7.0,100,0.00,, +RA,0.15,VWS V15.00,2017-05-25 00:09:00,
2017-05-24 19:14:00,56.2,56.2,29.64,NW,325,0.0,7.0,100,0.00,, +RA,0.15,VWS V15.00,2017-05-25 00:14:00,
2017-05-24 19:19:00,56.1,56.1,29.63,North,0,3.0,7.0,100,0.00,, +RA,0.15,VWS V15.00,2017-05-25 00:19:00,
2017-05-24 19:24:00,55.9,55.9,29.63,North,1,1.0,7.0,100,0.00,, +RA,0.15,VWS V15.00,2017-05-25 00:24:00,
2017-05-24 19:29:00,55.9,55.9,29.63,North,357,0.0,7.0,100,0.00,, +RA,0.15,VWS V15.00,2017-05-25 00:29:00,
2017-05-24 19:34:00,55.8,55.8,29.63,NNE,21,2.0,5.0,100,0.00,, +RA,0.15,VWS V15.00,2017-05-25 00:34:00,
2017-05-24 19:39:00,55.7,55.7,29.63,North,7,1.0,5.0,100,0.00,, +RA,0.15,VWS V15.00,2017-05-25 00:39:00,
2017-05-24 19:44:00,55.6,55.6,29.63,North,2,2.0,7.0,100,0.00,, +RA,0.15,VWS V15.00,2017-05-25 00:44:00,
2017-05-24 19:49:00,55.6,55.6,29.63,North,357,2.0,7.0,100,0.00,, +RA,0.15,VWS V15.00,2017-05-25 00:49:00,
2017-05-24 19:54:00,55.5,55.5,29.63,NNE,23,2.0,7.0,100,0.00,, +RA,0.15,VWS V15.00,2017-05-25 00:54:00,
2017-05-24 19:59:00,55.5,55.5,29.63,North,5,1.0,7.0,100,0.00,, +RA,0.15,VWS V15.00,2017-05-25 00:59:00,
2017-05-24 20:04:00,55.5,55.5,29.63,North,359,3.0,7.0,100,0.00,, +RA,0.15,VWS V15.00,2017-05-25 01:04:00,
2017-05-24 20:09:00,55.3,55.3,29.63,North,0,2.0,7.0,100,0.00,, +RA,0.15,VWS V15.00,2017-05-25 01:09:00,
2017-05-24 20:14:00,55.3,55.3,29.63,North,0,1.0,7.0,100,0.00,, +RA,0.15,VWS V15.00,2017-05-25 01:14:00,
2017-05-24 20:19:00,55.3,55.3,29.63,NNW,342,0.0,7.0,100,0.00,, +RA,0.15,VWS V15.00,2017-05-25 01:19:00,
2017-05-24 20:20:00,55.3,55.3,29.63,North,0,2.0,7.0,100,0.00,, +RA,0.15,VWS V15.00,2017-05-25 01:20:00,
2017-05-24 20:25:00,55.1,55.1,29.63,North,0,4.0,7.0,100,0.00,, +RA,0.15,VWS V15.00,2017-05-25 01:25:00,
2017-05-24 20:30:00,55.2,55.2,29.63,North,0,1.0,7.0,100,0.00,, +RA,0.15,VWS V15.00,2017-05-25 01:30:00,
2017-05-24 20:35:00,55.2,55.2,29.63,North,0,3.0,5.0,100,0.00,, +RA,0.15,VWS V15.00,2017-05-25 01:35:00,
2017-05-24 20:40:00,55.2,55.2,29.63,North,1,1.0,5.0,100,0.00,, +RA,0.15,VWS V15.00,2017-05-25 01:40:00,
2017-05-24 20:45:00,55.0,55.0,29.63,NNW,347,0.0,5.0,100,0.00,, +RA,0.15,VWS V15.00,2017-05-25 01:45:00,
2017-05-24 20:50:00,55.0,55.0,29.63,NNW,347,0.0,5.0,100,0.00,, +RA,0.15,VWS V15.00,2017-05-25 01:50:00,
2017-05-24 20:55:00,55.0,55.0,29.63,NNW,347,3.0,5.0,100,0.00,, +RA,0.15,VWS V15.00,2017-05-25 01:55:00,
2017-05-24 21:00:00,54.9,54.9,29.63,NNW,347,0.0,5.0,100,0.00,, +RA,0.15,VWS V15.00,2017-05-25 02:00:00,
2017-05-24 21:05:00,54.7,54.7,29.63,NNW,347,0.0,4.0,100,0.00,, +RA,0.15,VWS V15.00,2017-05-25 02:05:00,
2017-05-24 21:10:00,54.6,54.6,29.63,North,349,0.0,4.0,100,0.00,, +RA,0.15,VWS V15.00,2017-05-25 02:10:00,
2017-05-24 21:15:00,54.4,54.4,29.64,West,259,1.0,4.0,100,0.00,, +RA,0.15,VWS V15.00,2017-05-25 02:15:00,
2017-05-24 21:20:00,54.6,54.6,29.64,North,351,0.0,4.0,100,0.00,, +RA,0.15,VWS V15.00,2017-05-25 02:20:00,
2017-05-24 21:25:00,54.6,54.6,29.64,North,351,0.0,4.0,100,0.00,, +RA,0.15,VWS V15.00,2017-05-25 02:25:00,
2017-05-24 21:30:00,54.6,54.6,29.64,NW,322,0.0,4.0,100,0.00,, +RA,0.15,VWS V15.00,2017-05-25 02:30:00,
2017-05-24 21:35:00,54.6,54.6,29.64,North,0,0.0,4.0,100,0.00,, +RA,0.15,VWS V15.00,2017-05-25 02:35:00,
2017-05-24 21:40:00,54.4,54.4,29.64,North,0,3.0,4.0,100,0.00,, +RA,0.15,VWS V15.00,2017-05-25 02:40:00,
2017-05-24 21:45:00,54.3,54.3,29.64,North,4,0.0,5.0,100,0.00,, +RA,0.15,VWS V15.00,2017-05-25 02:45:00,
2017-05-24 21:50:00,54.2,54.2,29.64,North,359,2.0,5.0,100,0.00,, +RA,0.15,VWS V15.00,2017-05-25 02:50:00,
2017-05-24 21:55:00,54.2,54.2,29.64,North,0,0.0,5.0,100,0.00,, +RA,0.15,VWS V15.00,2017-05-25 02:55:00,
2017-05-24 22:00:00,54.0,54.0,29.65,WSW,255,4.0,5.0,100,0.00,, +RA,0.15,VWS V15.00,2017-05-25 03:00:00,